2001 Severe Tropical Cyclone ALISTAIR (2001106S08137)


IBTrACS version v04r00. Visit IBTrACS website for data access.
Please direct all questions to the IBTrACS Q and A forum

Storm track - Intensity - Wind Radii - Intensity Data - Source Data - All data

Summary Information

Satellite image near maximum intensity
Storm ID 2001106S08137
Start Apr 15 12Z
Landfall Apr 23 21Z
Max Intensity 65 kt (Apr 19 00Z), 975 mb (Apr 18 15Z)
End Apr 24 01Z
ATCF IDs ,SH202001
Track status Best track data.

Storm track plot

Map of storm track

Intensity plots

Map of storm track

Radial wind information

Map of storm track

Position and Intensity Table

BASIN ISO_TIME_________ NATURE LAT LON WMO WIND WMO PRES USA WIND BOM WIND BOM PRES NEUMANN WIND
degrees north degrees east kts mb kts kts mb kts
SP 2001-04-15 12:00:00 NR -7.50 137.00 20 1008 20 1008
SP 15:00:00 NR -7.59 136.79 21 1006
SP 18:00:00 NR -7.71 136.51 22 1005
SP 21:00:00 NR -7.90 136.10 23 1004
SP 2001-04-16 00:00:00 TS -8.23 135.47 25 1003 25 25 1003 25
SI 03:00:00 TS -8.52 134.83 27 25 1001 27
SI 06:00:00 TS -8.76 134.30 25 1000 30 25 1000 30
SI 09:00:00 TS -8.95 133.93 32 27 1000 32
SI 12:00:00 TS -9.17 133.57 30 1000 35 30 1000 35
SI 15:00:00 TS -9.38 133.10 35 32 997 35
SI 18:00:00 TS -9.67 132.67 35 995 35 35 995 35
SI 19:00:00 TS -9.80 132.55 35 995 35 35 995 35
SI 21:00:00 TS -9.95 132.22 35 35 995 35
SI 22:00:00 TS -10.00 132.01 35 995 35 35 995 35
SI 2001-04-17 00:00:00 TS -10.18 131.56 35 38 991 35
SI 01:00:00 TS -10.26 131.35 40 990 35 40 990 35
SI 03:00:00 TS -10.36 131.01 37 40 990 37
SI 04:00:00 TS -10.43 130.85 40 990 38 40 990 38
SI 06:00:00 TS -10.61 130.49 40 40 990 40
SI 07:00:00 TS -10.72 130.30 40 990 40 40 990 40
SI 09:00:00 TS -10.91 129.92 40 40 990 40
SI 10:00:00 TS -11.01 129.73 40 990 40 40 990 40
SI 12:00:00 TS -11.19 129.34 40 40 990 40
SI 15:00:00 TS -11.49 128.75 42 40 990 42
SI 16:00:00 TS -11.60 128.55 40 990 43 40 990 43
SI 18:00:00 TS -11.85 128.12 45 43 988 45
SI 21:00:00 TS -12.25 127.48 47 48 985 47
SI 22:00:00 TS -12.39 127.28 50 985 48 50 985 48
SI 2001-04-18 00:00:00 TS -12.63 126.90 50 985 50 50 985 50
SI 03:00:00 TS -13.07 126.31 50 50 985 50
SI 05:00:00 TS -13.38 125.88 50 985 50 50 985 50
SI 06:00:00 TS -13.52 125.64 50 50 984 50
SI 09:00:00 TS -13.93 124.93 52 53 981 52
SI 10:00:00 TS -14.06 124.70 55 980 53 55 980 53
SI 12:00:00 TS -14.31 124.28 55 56 978 55
SI 15:00:00 TS -14.66 123.68 57 59 975 57
SI 16:00:00 TS -14.78 123.49 60 975 58 60 975 58
SI 18:00:00 TS -15.03 123.13 60 60 975 60
SI 21:00:00 TS -15.44 122.62 62 60 975 62
SI 22:00:00 TS -15.58 122.44 60 975 63 60 975 63
SI 2001-04-19 00:00:00 TS -15.86 122.06 65 60 975 65
SI 03:00:00 TS -16.24 121.48 65 60 975 65
SI 04:00:00 TS -16.35 121.29 60 975 65 60 975 65
SI 06:00:00 TS -16.57 120.91 65 58 976 65
SI 09:00:00 TS -16.87 120.33 62 55 979 62
SI 10:00:00 TS -16.95 120.12 55 980 61 55 980 61
SI 12:00:00 TS -17.08 119.62 60 55 980 60
SI 15:00:00 TS -17.28 118.79 57 55 980 57
SI 16:00:00 TS -17.34 118.52 55 980 56 55 980 56
SI 18:00:00 TS -17.46 118.08 55 53 981 55
SI 21:00:00 TS -17.64 117.43 55 50 984 55
SI 22:00:00 TS -17.72 117.15 50 985 55 50 985 55
SI 2001-04-20 00:00:00 TS -17.92 116.43 55 50 985 55
SI 01:00:00 TS -18.01 116.08 50 985 53 50 985 53
SI 03:00:00 TS -18.15 115.54 50 43 988 50
SI 04:00:00 TS -18.21 115.30 40 990 48 40 990 48
SI 06:00:00 TS -18.36 114.81 45 40 990 45
SI 07:00:00 TS -18.44 114.59 40 990 45 40 990 45
SI 09:00:00 TS -18.61 114.17 45 40 990 45
SI 10:00:00 TS -18.70 113.98 40 990 45 40 990 45
SI 12:00:00 TS -18.91 113.63 45 40 990 45
SI 13:00:00 TS -19.03 113.46 40 990 44 40 990 44
SI 15:00:00 TS -19.23 113.12 42 40 990 42
SI 16:00:00 TS -19.33 112.96 40 990 41 40 990 41
SI 18:00:00 TS -19.51 112.69 40 40 990 40
SI 21:00:00 TS -19.76 112.28 40 40 990 40
SI 22:00:00 TS -19.84 112.13 40 990 40 40 990 40
SI 2001-04-21 00:00:00 TS -20.01 111.79 40 40 990 40
SI 01:00:00 TS -20.09 111.61 40 990 39 40 990 39
SI 03:00:00 TS -20.26 111.24 37 40 990 37
SI 04:00:00 TS -20.35 111.06 40 990 36 40 990 36
SI 06:00:00 TS -20.56 110.72 35 40 990 35
SI 07:00:00 TS -20.67 110.57 40 990 35 40 990 35
SI 09:00:00 TS -20.83 110.33 35 40 990 35
SI 10:00:00 TS -20.91 110.23 40 990 35 40 990 35
SI 12:00:00 TS -21.08 110.05 35 40 990 35
SI 13:00:00 TS -21.14 109.98 40 990 33 40 990 33
SI 15:00:00 TS -21.23 109.84 30 40 990 30
SI 16:00:00 TS -21.27 109.78 40 990 28 40 990 28
SI 18:00:00 TS -21.38 109.63 25 40 990 25
SI 19:00:00 TS -21.45 109.55 40 990 25 40 990 25
SI 21:00:00 TS -21.59 109.41 25 40 990 25
SI 22:00:00 TS -21.68 109.35 40 990 25 40 990 25
SI 2001-04-22 00:00:00 TS -21.86 109.22 25 40 990 25
SI 01:00:00 TS -21.96 109.16 40 990 25 40 990 25
SI 03:00:00 TS -22.16 109.03 25 40 990 25
SI 04:00:00 TS -22.26 108.98 40 990 25 40 990 25
SI 06:00:00 TS -22.49 108.96 25 40 990 25
SI 07:00:00 TS -22.60 108.97 40 990 25 40 990 25
SI 09:00:00 TS -22.81 109.03 25 40 990 25
SI 10:00:00 TS -22.91 109.07 40 990 25 40 990 25
SI 12:00:00 TS -23.10 109.18 25 40 990 25
SI 13:00:00 TS -23.19 109.23 40 990 25 40 990 25
SI 15:00:00 TS -23.35 109.32 25 40 990 25
SI 16:00:00 TS -23.43 109.37 40 990 25 40 990 25
SI 18:00:00 TS -23.58 109.46 25 40 990 25
SI 19:00:00 TS -23.66 109.49 40 990 25 40 990 25
SI 21:00:00 TS -23.85 109.54 25 40 990 25
SI 22:00:00 TS -23.94 109.57 40 990 25 40 990 25
SI 2001-04-23 00:00:00 TS -24.11 109.65 25 40 990 25
SI 01:00:00 TS -24.16 109.70 40 990 25 40 990 25
SI 03:00:00 TS -24.23 109.89 25 40 990 25
SI 04:00:00 TS -24.24 110.00 40 990 25 40 990 25
SI 06:00:00 TS -24.24 110.28 25 40 990 25
SI 07:00:00 TS -24.22 110.46 40 990 25 40 990 25
SI 09:00:00 TS -24.19 110.90 25 40 990 25
SI 10:00:00 TS -24.19 111.12 40 990 25 40 990 25
SI 12:00:00 TS -24.19 111.53 25 40 990 25
SI 13:00:00 NR -24.30 111.60 40 990 40 990
SI 15:00:00 NR -24.36 112.05 36 995
SI 16:00:00 NR -24.40 112.30 35 998 35 998
SI 18:00:00 NR -24.46 112.82 35 998
SI 19:00:00 NR -24.50 113.10 35 998 35 998
SI 21:00:00 NR -24.63 113.69 35 999
SI 22:00:00 NR -24.70 114.00 35 1000 35 1000
SI 2001-04-24 00:00:00 NR -24.84 114.60 28 1001
SI 01:00:00 NR -24.90 114.90 25 1002 25 1002

Source Information

Agency Information
USA bsh202001.txt
TOKYO
CMA
HKO
NEWDELHI
REUNION
BOM IDCKMSTM0S.csv:Line=21115:ALISTAIR
NADI
WELLINGTON
DS824
TD9636
TD9635
NEUMANN tracks.sh:Storm=1224:ALISTAIR:BSH202001:JTWC
MLC

All available IBTrACS Data

SEASON BASIN SUBBASIN ISO_TIME_________ NATURE LAT LON WMO WIND WMO PRES WMO AGENCY DIST2LAND LANDFALL IFLAG USA AGENCY USA ATCF_ID USA LAT USA LON USA STATUS USA WIND USA SSHS BOM LAT BOM LON BOM TYPE BOM WIND BOM PRES BOM CI BOM ROCI BOM POS_METHOD NEUMANN LAT NEUMANN LON NEUMANN CLASS NEUMANN WIND STORM SPEED STORM DIR
Year degrees north degrees east kts mb km km degrees north degrees east kts 1 degrees north degrees east kts mb 1 nmile degrees north degrees east kts kts degrees
2001 SP EA 2001-04-15 12:00:00 NR -7.50 137.00 20 1008 bom 104 104 ______O_______ -1 -7.50 137.00 20 20 1008 1.00 268 3 5 247
2001 SP EA 15:00:00 NR -7.59 136.79 119 119 ______P_______ -1 -7.59 136.79 20 21 1006 268 5 246
2001 SP EA 18:00:00 NR -7.71 136.51 143 143 ______P_______ -1 -7.71 136.51 20 22 1005 268 8 245
2001 SP EA 21:00:00 NR -7.90 136.10 174 174 ______P_______ -1 -7.90 136.10 20 23 1004 268 12 243
2001 SP EA 2001-04-16 00:00:00 TS -8.23 135.47 25 1003 bom 198 189 O_____O_____O_ jtwc_sh SH202001 -8.30 135.40 TD 25 -1 -8.20 135.50 20 25 1003 1.50 268 3 -8.30 135.40 TC 25 14 244
2001 SI WA 03:00:00 TS -8.52 134.83 191 191 P_____P_____P_ SH202001 -8.44 134.95 TD 27 -1 -8.60 134.71 20 25 1001 254 -8.44 134.95 TC 27 13 245
2001 SI WA 06:00:00 TS -8.76 134.30 25 1000 bom 213 212 O_____O_____O_ jtwc_sh SH202001 -8.60 134.50 TD 30 -1 -9.00 134.00 20 25 1000 2.00 241 3 -8.60 134.50 TC 30 10 244
2001 SI WA 09:00:00 TS -8.95 133.93 226 226 P_____P_____P_ SH202001 -8.78 134.06 TD 32 -1 -9.27 133.69 20 27 1000 241 -8.78 134.06 TC 32 8 241
2001 SI WA 12:00:00 TS -9.17 133.57 30 1000 bom 258 219 O_____O_____O_ jtwc_sh SH202001 -9.00 133.60 TS 35 0 -9.50 133.50 20 30 1000 2.50 241 3 -9.00 133.60 TC 35 9 243
2001 SI WA 15:00:00 TS -9.38 133.10 219 184 P_____P_____P_ SH202001 -9.23 133.11 TS 35 0 -9.66 133.07 20 32 997 229 -9.23 133.11 TC 35 10 241
2001 SI WA 18:00:00 TS -9.67 132.67 35 995 bom 173 158 O_____V_____O_ jtwc_sh SH202001 -9.50 132.60 TS 35 0 -10.00 132.80 30 35 995 3.00 217 3 -9.50 132.60 TC 35 10 232
2001 SI WA 19:00:00 TS -9.80 132.55 35 995 bom 158 145 P_____O_____P_ SH202001 -9.60 132.42 TS 35 0 -10.20 132.80 30 35 995 3.00 214 3 -9.60 132.42 TC 35 10 238
2001 SI WA 21:00:00 TS -9.95 132.22 145 134 P_____P_____P_ SH202001 -9.80 132.06 TS 35 0 -10.24 132.54 30 35 995 214 -9.80 132.06 TC 35 11 249
2001 SI WA 22:00:00 TS -10.00 132.01 35 995 bom 134 120 P_____O_____P_ SH202001 -9.90 131.87 TS 35 0 -10.20 132.30 30 35 995 3.00 214 3 -9.90 131.87 TC 35 14 250
2001 SI WA 2001-04-17 00:00:00 TS -10.18 131.56 120 112 O_____P_____O_ jtwc_sh SH202001 -10.10 131.50 TS 35 0 -10.34 131.68 30 38 991 196 -10.10 131.50 TC 35 14 249
2001 SI WA 01:00:00 TS -10.26 131.35 40 990 bom 112 101 P_____O_____P_ SH202001 -10.19 131.32 TS 35 0 -10.40 131.40 30 40 990 3.00 187 3 -10.19 131.32 TC 35 11 251
2001 SI WA 03:00:00 TS -10.36 131.01 101 101 P_____P_____P_ SH202001 -10.36 130.96 TS 37 0 -10.38 131.11 30 40 990 187 -10.36 130.96 TC 37 10 251
2001 SI WA 04:00:00 TS -10.43 130.85 40 990 bom 103 78 P_____O_____P_ SH202001 -10.44 130.77 TS 38 0 -10.40 131.00 30 40 990 3.00 187 3 -10.44 130.77 TC 38 11 244
2001 SI WA 06:00:00 TS -10.61 130.49 78 68 O_____P_____O_ jtwc_sh SH202001 -10.60 130.40 TS 40 0 -10.64 130.67 30 40 990 187 -10.60 130.40 TC 40 12 241
2001 SI WA 07:00:00 TS -10.72 130.30 40 990 bom 70 57 P_____O_____P_ SH202001 -10.68 130.20 TS 40 0 -10.80 130.50 30 40 990 3.00 187 6 -10.68 130.20 TC 40 13 242
2001 SI WA 09:00:00 TS -10.91 129.92 64 62 P_____P_____P_ SH202001 -10.83 129.80 TS 40 0 -11.07 130.17 30 40 990 169 -10.83 129.80 TC 40 13 242
2001 SI WA 10:00:00 TS -11.01 129.73 40 990 bom 70 70 P_____O_____P_ SH202001 -10.92 129.60 TS 40 0 -11.20 130.00 30 40 990 3.00 160 6 -10.92 129.60 TC 40 13 244
2001 SI WA 12:00:00 TS -11.19 129.34 93 93 O_____P_____O_ jtwc_sh SH202001 -11.10 129.20 TS 40 0 -11.38 129.61 30 40 990 160 -11.10 129.20 TC 40 13 244
2001 SI WA 15:00:00 TS -11.49 128.75 152 152 P_____P_____P_ SH202001 -11.43 128.65 TS 42 0 -11.61 128.94 30 40 990 160 -11.43 128.65 TC 42 13 242
2001 SI WA 16:00:00 TS -11.60 128.55 40 990 bom 174 174 P_____O_____P_ SH202001 -11.55 128.47 TS 43 0 -11.70 128.70 30 40 990 3.00 160 6 -11.55 128.47 TC 43 14 239
2001 SI WA 18:00:00 TS -11.85 128.12 218 184 O_____P_____O_ jtwc_sh SH202001 -11.80 128.10 TS 45 0 -11.96 128.16 30 43 988 153 -11.80 128.10 TC 45 15 238
2001 SI WA 21:00:00 TS -12.25 127.48 173 158 P_____P_____P_ SH202001 -12.19 127.51 TS 47 0 -12.38 127.40 30 48 985 143 -12.19 127.51 TC 47 15 237
2001 SI WA 22:00:00 TS -12.39 127.28 50 985 bom 158 134 P_____V_____P_ SH202001 -12.33 127.31 TS 48 0 -12.50 127.20 30 50 985 3.50 139 3 -12.33 127.31 TC 48 14 236
2001 SI WA 2001-04-18 00:00:00 TS -12.63 126.90 50 985 bom 134 104 O_____O_____O_ jtwc_sh SH202001 -12.60 126.90 TS 50 0 -12.70 126.90 30 50 985 3.50 133 3 -12.60 126.90 TC 50 14 234
2001 SI WA 03:00:00 TS -13.07 126.31 100 70 P_____P_____P_ SH202001 -13.00 126.25 TS 50 0 -13.22 126.42 30 50 985 133 -13.00 126.25 TC 50 15 233
2001 SI WA 05:00:00 TS -13.38 125.88 50 985 bom 70 70 P_____O_____P_ SH202001 -13.27 125.81 TS 50 0 -13.60 126.00 30 50 985 3.50 133 3 -13.27 125.81 TC 50 16 235
2001 SI WA 06:00:00 TS -13.52 125.64 77 70 O_____P_____O_ jtwc_sh SH202001 -13.40 125.60 TS 50 0 -13.76 125.72 30 50 984 133 -13.40 125.60 TC 50 16 239
2001 SI WA 09:00:00 TS -13.93 124.93 84 77 P_____P_____P_ SH202001 -13.80 124.99 TS 52 0 -14.18 124.79 30 53 981 133 -13.80 124.99 TC 52 16 240
2001 SI WA 10:00:00 TS -14.06 124.70 55 980 bom 77 77 P_____O_____P_ SH202001 -13.93 124.79 TS 53 0 -14.30 124.50 30 55 980 4.00 133 3 -13.93 124.79 TC 53 15 239
2001 SI WA 12:00:00 TS -14.31 124.28 102 102 O_____P_____O_ jtwc_sh SH202001 -14.20 124.40 TS 55 0 -14.52 124.03 30 56 978 133 -14.20 124.40 TC 55 14 238
2001 SI WA 15:00:00 TS -14.66 123.68 125 125 P_____P_____P_ SH202001 -14.59 123.79 TS 57 0 -14.81 123.47 30 59 975 133 -14.59 123.79 TC 57 13 238
2001 SI WA 16:00:00 TS -14.78 123.49 60 975 bom 131 131 P_____O_____P_ SH202001 -14.73 123.59 TS 58 0 -14.90 123.30 30 60 975 4.00 133 3 -14.73 123.59 TC 58 13 236
2001 SI WA 18:00:00 TS -15.03 123.13 148 124 O_____P_____O_ jtwc_sh SH202001 -15.00 123.20 TS 60 0 -15.08 123.00 30 60 975 133 -15.00 123.20 TC 60 13 232
2001 SI WA 21:00:00 TS -15.44 122.62 127 109 P_____P_____P_ SH202001 -15.46 122.64 TS 62 0 -15.38 122.56 30 60 975 133 -15.46 122.64 TC 62 13 230
2001 SI WA 22:00:00 TS -15.58 122.44 60 975 bom 114 108 P_____O_____P_ SH202001 -15.62 122.46 TS 63 0 -15.50 122.40 30 60 975 4.00 133 3 -15.62 122.46 TC 63 14 232
2001 SI WA 2001-04-19 00:00:00 TS -15.86 122.06 108 108 O_____P_____O_ jtwc_sh SH202001 -15.90 122.10 TY 65 1 -15.78 121.99 30 60 975 133 -15.90 122.10 TC 65 14 235
2001 SI WA 03:00:00 TS -16.24 121.48 131 131 P_____P_____P_ SH202001 -16.23 121.56 TY 65 1 -16.25 121.32 30 60 975 133 -16.23 121.56 TC 65 13 237
2001 SI WA 04:00:00 TS -16.35 121.29 60 975 bom 139 132 P_____O_____P_ SH202001 -16.32 121.38 TY 65 1 -16.40 121.10 30 60 975 4.00 133 3 -16.32 121.38 TC 65 13 238
2001 SI WA 06:00:00 TS -16.57 120.91 158 158 O_____P_____O_ jtwc_sh SH202001 -16.50 121.00 TY 65 1 -16.72 120.74 30 58 976 133 -16.50 121.00 TC 65 13 240
2001 SI WA 09:00:00 TS -16.87 120.33 206 206 P_____P_____P_ SH202001 -16.75 120.39 TY 62 0 -17.11 120.21 30 55 979 133 -16.75 120.39 TC 62 13 243
2001 SI WA 10:00:00 TS -16.95 120.12 55 980 bom 222 222 P_____O_____P_ SH202001 -16.83 120.18 TY 61 0 -17.20 120.00 30 55 980 4.00 133 3 -16.83 120.18 TC 61 14 253
2001 SI WA 12:00:00 TS -17.08 119.62 271 271 O_____P_____O_ jtwc_sh SH202001 -17.00 119.70 TS 60 0 -17.25 119.46 30 55 980 133 -17.00 119.70 TC 60 16 256
2001 SI WA 15:00:00 TS -17.28 118.79 314 314 P_____P_____P_ SH202001 -17.31 118.87 TS 57 0 -17.21 118.63 30 55 980 133 -17.31 118.87 TC 57 16 256
2001 SI WA 16:00:00 TS -17.34 118.52 55 980 bom 319 308 P_____O_____P_ SH202001 -17.41 118.58 TS 56 0 -17.20 118.40 30 55 980 4.00 133 3 -17.41 118.58 TC 56 14 254
2001 SI WA 18:00:00 TS -17.46 118.08 309 309 O_____P_____O_ jtwc_sh SH202001 -17.60 118.00 TS 55 0 -17.19 118.25 30 53 981 133 -17.60 118.00 TC 55 13 254
2001 SI WA 21:00:00 TS -17.64 117.43 321 310 P_____P_____P_ SH202001 -17.81 117.19 TS 55 0 -17.30 117.90 30 50 984 133 -17.81 117.19 TC 55 14 254
2001 SI WA 22:00:00 TS -17.72 117.15 50 985 bom 316 302 P_____O_____P_ SH202001 -17.88 116.93 TS 55 0 -17.40 117.60 30 50 985 3.50 133 3 -17.88 116.93 TC 55 20 254
2001 SI WA 2001-04-20 00:00:00 TS -17.92 116.43 303 293 O_____P_____O_ jtwc_sh SH202001 -18.00 116.40 TS 55 0 -17.75 116.50 30 50 985 133 -18.00 116.40 TC 55 21 254
2001 SI WA 01:00:00 TS -18.01 116.08 50 985 bom 297 291 P_____O_____P_ SH202001 -18.07 116.12 TS 53 0 -17.90 116.00 30 50 985 3.50 133 3 -18.07 116.12 TC 53 18 255
2001 SI WA 03:00:00 TS -18.15 115.54 306 296 P_____P_____P_ SH202001 -18.20 115.56 TS 50 0 -18.04 115.48 30 43 988 133 -18.20 115.56 TC 50 15 255
2001 SI WA 04:00:00 TS -18.21 115.30 40 990 bom 305 305 P_____O_____P_ SH202001 -18.27 115.29 TS 48 0 -18.10 115.30 30 40 990 3.00 133 3 -18.27 115.29 TC 48 14 253
2001 SI WA 06:00:00 TS -18.36 114.81 315 315 O_____P_____O_ jtwc_sh SH202001 -18.40 114.80 TS 45 0 -18.29 114.83 30 40 990 -18.40 114.80 TC 45 14 251
2001 SI WA 07:00:00 TS -18.44 114.59 40 990 bom 325 316 P_____O_____P_ SH202001 -18.46 114.58 TS 45 0 -18.40 114.60 30 40 990 3.00 3 -18.46 114.58 TC 45 13 248
2001 SI WA 09:00:00 TS -18.61 114.17 331 327 P_____P_____P_ SH202001 -18.58 114.20 TS 45 0 -18.65 114.13 30 40 990 -18.58 114.20 TC 45 13 246
2001 SI WA 10:00:00 TS -18.70 113.98 40 990 bom 333 331 P_____O_____P_ SH202001 -18.65 114.02 TS 45 0 -18.80 113.90 30 40 990 3.00 3 -18.65 114.02 TC 45 12 239
2001 SI WA 12:00:00 TS -18.91 113.63 338 326 O_____P_____O_ jtwc_sh SH202001 -18.80 113.70 TS 45 0 -19.14 113.49 30 40 990 -18.80 113.70 TC 45 12 237
2001 SI WA 13:00:00 TS -19.03 113.46 40 990 bom 328 313 P_____O_____P_ SH202001 -18.89 113.54 TS 44 0 -19.30 113.30 30 40 990 3.00 3 -18.89 113.54 TC 44 12 237
2001 SI WA 15:00:00 TS -19.23 113.12 316 305 P_____P_____P_ SH202001 -19.08 113.24 TS 42 0 -19.52 112.88 30 40 990 -19.08 113.24 TC 42 11 237
2001 SI WA 16:00:00 TS -19.33 112.96 40 990 bom 308 295 P_____O_____P_ SH202001 -19.19 113.10 TS 41 0 -19.60 112.70 30 40 990 3.00 3 -19.19 113.10 TC 41 10 236
2001 SI WA 18:00:00 TS -19.51 112.69 300 295 O_____P_____O_ jtwc_sh SH202001 -19.40 112.80 TS 40 0 -19.72 112.46 30 40 990 -19.40 112.80 TC 40 9 236
2001 SI WA 21:00:00 TS -19.76 112.28 293 293 P_____P_____P_ SH202001 -19.71 112.31 TS 40 0 -19.85 112.21 30 40 990 -19.71 112.31 TC 40 9 238
2001 SI WA 22:00:00 TS -19.84 112.13 40 990 bom 306 298 P_____O_____P_ SH202001 -19.81 112.15 TS 40 0 -19.90 112.10 30 40 990 3.00 3 -19.81 112.15 TC 40 11 241
2001 SI WA 2001-04-21 00:00:00 TS -20.01 111.79 311 311 O_____P_____O_ jtwc_sh SH202001 -20.00 111.80 TS 40 0 -20.02 111.77 30 40 990 -20.00 111.80 TC 40 11 243
2001 SI WA 01:00:00 TS -20.09 111.61 40 990 bom 320 320 P_____O_____P_ SH202001 -20.09 111.61 TS 39 0 -20.10 111.60 30 40 990 3.00 3 -20.09 111.61 TC 39 12 244
2001 SI WA 03:00:00 TS -20.26 111.24 341 341 P_____P_____P_ SH202001 -20.25 111.23 TS 37 0 -20.29 111.27 30 40 990 -20.25 111.23 TC 37 12 243
2001 SI WA 04:00:00 TS -20.35 111.06 40 990 bom 344 353 P_____O_____P_ SH202001 -20.33 111.04 TS 36 0 -20.40 111.10 30 40 990 3.00 3 -20.33 111.04 TC 36 12 239
2001 SI WA 06:00:00 TS -20.56 110.72 371 371 O_____P_____O_ jtwc_sh SH202001 -20.50 110.70 TS 35 0 -20.68 110.75 30 40 990 -20.50 110.70 TC 35 11 236
2001 SI WA 07:00:00 TS -20.67 110.57 40 990 bom 375 384 P_____O_____P_ SH202001 -20.60 110.55 TS 35 0 -20.80 110.60 30 40 990 3.00 3 -20.60 110.55 TC 35 9 233
2001 SI WA 09:00:00 TS -20.83 110.33 395 390 P_____P_____P_ SH202001 -20.81 110.30 TS 35 0 -20.88 110.38 30 40 990 -20.81 110.30 TC 35 8 233
2001 SI WA 10:00:00 TS -20.91 110.23 40 990 bom 399 393 P_____O_____P_ SH202001 -20.92 110.19 TS 35 0 -20.90 110.30 30 40 990 3.00 3 -20.92 110.19 TC 35 7 226
2001 SI WA 12:00:00 TS -21.08 110.05 398 398 O_____P_____O_ jtwc_sh SH202001 -21.10 110.00 TS 35 0 -21.04 110.16 30 40 990 -21.10 110.00 TC 35 7 225
2001 SI WA 13:00:00 TS -21.14 109.98 40 990 bom 407 402 P_____O_____P_ SH202001 -21.16 109.92 TS 33 -1 -21.10 110.10 30 40 990 3.00 3 -21.16 109.92 TC 33 5 233
2001 SI WA 15:00:00 TS -21.23 109.84 422 417 P_____P_____P_ SH202001 -21.26 109.78 TS 30 -1 -21.16 109.97 30 40 990 -21.26 109.78 TC 30 4 236
2001 SI WA 16:00:00 TS -21.27 109.78 40 990 bom 417 417 P_____O_____P_ SH202001 -21.30 109.72 TS 28 -1 -21.20 109.90 30 40 990 3.00 3 -21.30 109.72 TC 28 5 233
2001 SI WA 18:00:00 TS -21.38 109.63 433 433 O_____P_____O_ jtwc_sh SH202001 -21.40 109.60 TD 25 -1 -21.33 109.70 30 40 990 -21.40 109.60 TC 25 6 230
2001 SI WA 19:00:00 TS -21.45 109.55 40 990 bom 433 439 P_____O_____P_ SH202001 -21.47 109.53 TD 25 -1 -21.40 109.60 30 40 990 3.00 3 -21.47 109.53 TC 25 6 223
2001 SI WA 21:00:00 TS -21.59 109.41 446 443 P_____P_____P_ SH202001 -21.63 109.39 TD 25 -1 -21.53 109.46 30 40 990 -21.63 109.39 TC 25 6 220
2001 SI WA 22:00:00 TS -21.68 109.35 40 990 bom 453 451 P_____O_____P_ SH202001 -21.71 109.32 TD 25 -1 -21.60 109.40 30 40 990 3.00 3 -21.71 109.32 TC 25 6 212
2001 SI WA 2001-04-22 00:00:00 TS -21.86 109.22 459 457 O_____P_____O_ jtwc_sh SH202001 -21.90 109.20 TD 25 -1 -21.79 109.27 30 40 990 -21.90 109.20 TC 25 7 210
2001 SI WA 01:00:00 TS -21.96 109.16 40 990 bom 457 457 P_____O_____P_ SH202001 -21.99 109.14 TD 25 -1 -21.90 109.20 30 40 990 3.00 3 -21.99 109.14 TC 25 7 211
2001 SI WA 03:00:00 TS -22.16 109.03 474 473 P_____P_____P_ SH202001 -22.19 109.06 TD 25 -1 -22.09 108.98 30 40 990 -22.19 109.06 TC 25 7 210
2001 SI WA 04:00:00 TS -22.26 108.98 40 990 bom 473 472 P_____O_____P_ SH202001 -22.29 109.02 TD 25 -1 -22.20 108.90 30 40 990 3.00 3 -22.29 109.02 TC 25 7 192
2001 SI WA 06:00:00 TS -22.49 108.96 472 472 O_____P_____O_ jtwc_sh SH202001 -22.50 109.00 TD 25 -1 -22.47 108.88 30 40 990 -22.50 109.00 TC 25 7 0
2001 SI WA 07:00:00 TS -22.60 108.97 40 990 bom 472 471 P_____O_____P_ SH202001 -22.60 109.01 TD 25 -1 -22.60 108.90 30 40 990 3.00 3 -22.60 109.01 TC 25 7 171
2001 SI WA 09:00:00 TS -22.81 109.03 472 462 P_____P_____P_ SH202001 -22.81 109.06 TD 25 -1 -22.81 108.95 30 40 990 -22.81 109.06 TC 25 6 164
2001 SI WA 10:00:00 TS -22.91 109.07 40 990 bom 462 447 P_____O_____P_ SH202001 -22.91 109.10 TD 25 -1 -22.90 109.00 30 40 990 3.00 3 -22.91 109.10 TC 25 7 154
2001 SI WA 12:00:00 TS -23.10 109.18 447 445 O_____P_____O_ jtwc_sh SH202001 -23.10 109.20 TD 25 -1 -23.11 109.14 30 40 990 -23.10 109.20 TC 25 7 153
2001 SI WA 13:00:00 TS -23.19 109.23 40 990 bom 445 432 P_____O_____P_ SH202001 -23.19 109.25 TD 25 -1 -23.20 109.20 30 40 990 3.00 3 -23.19 109.25 TC 25 6 153
2001 SI WA 15:00:00 TS -23.35 109.32 431 421 P_____P_____P_ SH202001 -23.36 109.35 TD 25 -1 -23.34 109.27 30 40 990 -23.36 109.35 TC 25 5 151
2001 SI WA 16:00:00 TS -23.43 109.37 40 990 bom 421 415 P_____O_____P_ SH202001 -23.44 109.40 TD 25 -1 -23.40 109.30 30 40 990 3.00 3 -23.44 109.40 TC 25 5 152
2001 SI WA 18:00:00 TS -23.58 109.46 405 403 O_____P_____O_ jtwc_sh SH202001 -23.60 109.50 TD 25 -1 -23.53 109.37 30 40 990 -23.60 109.50 TC 25 5 156
2001 SI WA 19:00:00 TS -23.66 109.49 40 990 bom 403 401 P_____O_____P_ SH202001 -23.69 109.53 TD 25 -1 -23.60 109.40 30 40 990 3.00 3 -23.69 109.53 TC 25 6 164
2001 SI WA 21:00:00 TS -23.85 109.54 399 389 P_____P_____P_ SH202001 -23.88 109.58 TD 25 -1 -23.79 109.47 30 40 990 -23.88 109.58 TC 25 6 165
2001 SI WA 22:00:00 TS -23.94 109.57 40 990 bom 389 386 P_____O_____P_ SH202001 -23.96 109.61 TD 25 -1 -23.90 109.50 30 40 990 3.00 3 -23.96 109.61 TC 25 5 159
2001 SI WA 2001-04-23 00:00:00 TS -24.11 109.65 386 375 O_____P_____O_ jtwc_sh SH202001 -24.10 109.70 TD 25 -1 -24.12 109.54 30 40 990 -24.10 109.70 TC 25 5 152
2001 SI WA 01:00:00 TS -24.16 109.70 40 990 bom 375 355 P_____O_____P_ SH202001 -24.15 109.75 TD 25 -1 -24.20 109.60 30 40 990 3.00 3 -24.15 109.75 TC 25 5 120
2001 SI WA 03:00:00 TS -24.23 109.89 355 345 P_____P_____P_ SH202001 -24.20 109.90 TD 25 -1 -24.29 109.85 30 40 990 -24.20 109.90 TC 25 6 105
2001 SI WA 04:00:00 TS -24.24 110.00 40 990 bom 345 314 P_____O_____P_ SH202001 -24.21 110.01 TD 25 -1 -24.30 110.00 30 40 990 3.00 3 -24.21 110.01 TC 25 7 91
2001 SI WA 06:00:00 TS -24.24 110.28 314 294 O_____P_____O_ jtwc_sh SH202001 -24.20 110.30 TD 25 -1 -24.31 110.25 30 40 990 -24.20 110.30 TC 25 8 87
2001 SI WA 07:00:00 TS -24.22 110.46 40 990 bom 294 254 P_____O_____P_ SH202001 -24.18 110.50 TD 25 -1 -24.30 110.40 30 40 990 3.00 3 -24.18 110.50 TC 25 11 86
2001 SI WA 09:00:00 TS -24.19 110.90 254 234 P_____P_____P_ SH202001 -24.12 110.97 TD 25 -1 -24.30 110.79 30 40 990 -24.12 110.97 TC 25 12 87
2001 SI WA 10:00:00 TS -24.19 111.12 40 990 bom 234 193 P_____O_____P_ SH202001 -24.08 111.24 TD 25 -1 -24.30 111.00 30 40 990 3.00 3 -24.08 111.24 TC 25 11 90
2001 SI WA 12:00:00 TS -24.19 111.53 193 182 O_____P_____O_ jtwc_sh SH202001 -24.00 111.80 TD 25 -1 -24.29 111.39 30 40 990 -24.00 111.80 TC 25 9 104
2001 SI WA 13:00:00 NR -24.30 111.60 40 990 bom 182 141 ______O_______ SH202001 TD -1 -24.30 111.60 30 40 990 3.00 3 TC 10 109
2001 SI WA 15:00:00 NR -24.36 112.05 131 111 ______P_______ SH202001 TD -1 -24.36 112.05 30 36 995 TC 13 99
2001 SI WA 16:00:00 NR -24.40 112.30 35 998 bom 111 61 ______O_______ SH202001 TD -1 -24.40 112.30 21 35 998 2.50 3 TC 14 98
2001 SI WA 18:00:00 NR -24.46 112.82 61 32 ______P_______ -1 -24.46 112.82 21 35 998 15 98
2001 SI WA 19:00:00 NR -24.50 113.10 35 998 bom 32 0 ______O_______ -1 -24.50 113.10 21 35 998 2.50 3 16 102
2001 SI WA 21:00:00 NR -24.63 113.69 0 0 ______P_______ -1 -24.63 113.69 21 35 999 17 104
2001 SI WA 22:00:00 NR -24.70 114.00 35 1000 bom 0 0 ______O_______ -1 -24.70 114.00 21 35 1000 2.00 3 17 104
2001 SI WA 2001-04-24 00:00:00 NR -24.84 114.60 0 0 ______P_______ -1 -24.84 114.60 21 28 1001 17 104
2001 SI WA 01:00:00 NR -24.90 114.90 25 1002 bom 0 ______O_______ -1 -24.90 114.90 20 25 1002 3 17 103